First Ferry Viii — VRS4306 — position and weather

sailwx.info

Track history (hours):
 
Tides and Currents Weather Stations Pressure Air Temp Water Temp Dewpoint Dewpoint Depression Visibility Wind Speed Wind Dir Waves Ship Positions

First Ferry Viii

Last reported at 2015-Jul-04 05:33 UTC. Time now 2015-Jul-04 07:04 UTC.
Position N 22°17' E 114°10'.

Length 36 m; draft 1.8 m.

Type: High speed craft. MMSI: 477995030.

Date/timePositionNaut miles runAvg speedWind from/ knotsBaromVisibWave heightAir tempDewpointWater temp
2015-Jul-04 05:33N 22°17' E 114°10'4 2.7
2015-Jul-04 04:06N 22°17' E 114°05'4 7.5
2015-Jul-04 03:34N 22°17' E 114°10'2 2.4
2015-Jul-04 02:34N 22°20' E 114°09'2 2.3
2015-Jul-04 01:33N 22°17' E 114°09'4 2.9
2015-Jul-04 00:16N 22°17' E 114°05'4 5.5
2015-Jul-03 23:34N 22°17' E 114°10'0 0.0
2015-Jul-03 16:34N 22°17' E 114°10'4 2.7
2015-Jul-03 15:14N 22°17' E 114°06'4 5.3
2015-Jul-03 14:34N 22°17' E 114°10'4 3.3
2015-Jul-03 13:18N 22°16' E 114°05'4 5.5
2015-Jul-03 12:33N 22°17' E 114°10'4 3.4
2015-Jul-03 11:17N 22°16' E 114°05'4 2.5
2015-Jul-03 09:33N 22°17' E 114°10'3 2.5
2015-Jul-03 08:32N 22°20' E 114°09'0 0.0
2015-Jul-03 07:22N 22°20' E 114°09'0 0.0
2015-Jul-03 06:33N 22°20' E 114°09'0 0.0
2015-Jul-03 05:32N 22°20' E 114°09'0 0.0
2015-Jul-03 04:33N 22°20' E 114°09'0 0.0
2015-Jul-03 03:33N 22°20' E 114°09'3 2.8
2015-Jul-03 02:33N 22°19' E 114°12'2 2.5
2015-Jul-03 01:33N 22°17' E 114°09'5 4.0
2015-Jul-03 00:19N 22°16' E 114°04'5 6.5
2015-Jul-02 23:33N 22°17' E 114°09'0 0.0
2015-Jul-02 16:33N 22°17' E 114°10'5 3.7
2015-Jul-02 15:19N 22°16' E 114°05'5 6.0
2015-Jul-02 14:33N 22°17' E 114°10'5 3.7
2015-Jul-02 13:18N 22°16' E 114°05'5 6.1
2015-Jul-02 12:33N 22°17' E 114°10'3 2.2
2015-Jul-02 11:11N 22°17' E 114°06'3 1.8
2015-Jul-02 09:32N 22°17' E 114°10'0 0.0
2015-Jul-02 07:33N 22°17' E 114°10'3 2.6
2015-Jul-02 06:33N 22°19' E 114°12'0 0.0
2015-Jul-02 05:33N 22°19' E 114°12'0 0.0
2015-Jul-02 04:33N 22°19' E 114°12'0 0.0
2015-Jul-02 03:33N 22°19' E 114°12'2 2.3
2015-Jul-02 02:33N 22°17' E 114°10'0 0.3
2015-Jul-02 01:33N 22°17' E 114°10'7 5.7
2015-Jul-02 00:24N 22°15' E 114°03'7 7.8
2015-Jul-01 23:33N 22°17' E 114°10'0 0.0
2015-Jul-01 16:33N 22°18' E 114°09'5 4.0
2015-Jul-01 15:21N 22°16' E 114°04'5 6.3
2015-Jul-01 14:33N 22°17' E 114°10'5 4.3
2015-Jul-01 13:20N 22°16' E 114°04'5 6.8
2015-Jul-01 12:33N 22°17' E 114°10'5 4.3
2015-Jul-01 11:20N 22°16' E 114°04'0 0.0
2015-Jul-01 06:24N 22°16' E 114°04'7 8.9
2015-Jul-01 05:34N 22°18' E 114°12'2 2.3
2015-Jul-01 04:33N 22°17' E 114°10'7 5.1
2015-Jul-01 03:16N 22°15' E 114°03'7 9.3
2015-Jul-01 02:34N 22°17' E 114°09'5 3.7
2015-Jul-01 01:17N 22°16' E 114°05'4 5.7
2015-Jul-01 00:33N 22°18' E 114°09'1 0.7
2015-Jun-30 23:33N 22°17' E 114°10'0 0.0
2015-Jun-30 16:34N 22°17' E 114°09'6 4.8
2015-Jun-30 15:23N 22°15' E 114°04'6 7.0
2015-Jun-30 14:33N 22°17' E 114°10'6 4.7
2015-Jun-30 13:21N 22°15' E 114°04'6 7.2
2015-Jun-30 12:33N 22°17' E 114°10'5 3.6
2015-Jun-30 11:19N 22°16' E 114°05'5 2.6
2015-Jun-30 09:33N 22°17' E 114°10'0 0.0
2015-Jun-30 07:31N 22°17' E 114°10'3 2.7
2015-Jun-30 06:34N 22°19' E 114°12'0 0.0
2015-Jun-30 05:34N 22°19' E 114°12'0 0.0
2015-Jun-30 04:33N 22°19' E 114°12'0 0.0
2015-Jun-30 03:34N 22°19' E 114°12'2 2.1
2015-Jun-30 02:34N 22°17' E 114°10'1 0.7
2015-Jun-30 01:34N 22°17' E 114°10'5 4.1
2015-Jun-30 00:20N 22°16' E 114°04'5 6.3
2015-Jun-29 23:34N 22°17' E 114°09'0 0.0
2015-Jun-29 16:33N 22°17' E 114°09'6 4.6
2015-Jun-29 15:21N 22°15' E 114°04'6 7.0
2015-Jun-29 14:33N 22°17' E 114°10'5 4.5
2015-Jun-29 13:22N 22°16' E 114°04'5 6.7
2015-Jun-29 12:33N 22°17' E 114°10'4 3.2
2015-Jun-29 11:17N 22°17' E 114°05'4 2.4
2015-Jun-29 09:33N 22°17' E 114°10'0 0.0
2015-Jun-29 07:30N 22°17' E 114°10'3 2.8
2015-Jun-29 06:33N 22°19' E 114°12'0 0.0
2015-Jun-29 05:33N 22°19' E 114°12'0 0.0
2015-Jun-29 04:33N 22°19' E 114°12'0 0.0
2015-Jun-29 03:33N 22°19' E 114°12'0 0.0
2015-Jun-29 02:33N 22°19' E 114°12'3 2.7
2015-Jun-29 01:34N 22°17' E 114°09'5 3.7
2015-Jun-29 00:18N 22°16' E 114°05'5 6.3
2015-Jun-28 23:34N 22°17' E 114°09'0 0.0
2015-Jun-28 16:34N 22°18' E 114°09'6 4.7
2015-Jun-28 15:22N 22°15' E 114°04'6 7.1
2015-Jun-28 14:33N 22°18' E 114°09'5 3.9
2015-Jun-28 13:19N 22°16' E 114°05'5 6.4
2015-Jun-28 12:34N 22°17' E 114°10'5 4.4
2015-Jun-28 11:22N 22°16' E 114°04'6 7.2
2015-Jun-28 10:33N 22°17' E 114°10'2 2.1
2015-Jun-28 09:33N 22°19' E 114°12'0 0.0
2015-Jun-28 08:33N 22°19' E 114°12'0 0.0
2015-Jun-28 07:33N 22°19' E 114°12'3 2.6
2015-Jun-28 06:33N 22°17' E 114°10'5 4.1
2015-Jun-28 05:16N 22°16' E 114°04'5 7.3
2015-Jun-28 04:34N 22°17' E 114°09'5 3.4
2015-Jun-28 03:12N 22°16' E 114°05'5 7.3
2015-Jun-28 02:33N 22°17' E 114°10'5 3.7
2015-Jun-28 01:18N 22°16' E 114°05'5 6.7
2015-Jun-28 00:33N 22°19' E 114°09'2 1.7
2015-Jun-27 23:33N 22°17' E 114°10'0 0.0
2015-Jun-27 16:34N 22°17' E 114°10'6 4.5
2015-Jun-27 15:15N 22°15' E 114°04'6 8.3
2015-Jun-27 14:33N 22°17' E 114°10'6 4.6
2015-Jun-27 13:21N 22°15' E 114°04'3 4.0
2015-Jun-27 12:33N 22°17' E 114°07'3 0.9
2015-Jun-27 09:33N 22°17' E 114°10'0 0.0
2015-Jun-27 07:33N 22°17' E 114°10'0 0.0
2015-Jun-27 05:34N 22°17' E 114°10'0 0.0
2015-Jun-27 03:33N 22°17' E 114°10'3 2.5
2015-Jun-27 02:33N 22°19' E 114°12'3 2.6
2015-Jun-27 01:34N 22°17' E 114°09'5 3.9
2015-Jun-27 00:19N 22°16' E 114°04'5 6.6
2015-Jun-26 23:34N 22°17' E 114°10'0 0.0
2015-Jun-26 16:33N 22°17' E 114°10'6 4.7
2015-Jun-26 15:21N 22°15' E 114°04'6 7.2
2015-Jun-26 14:33N 22°17' E 114°10'5 3.8
2015-Jun-26 13:19N 22°16' E 114°05'5 6.2
2015-Jun-26 12:33N 22°17' E 114°10'0 0.1
2015-Jun-26 10:30N 22°17' E 114°09'0 0.3
2015-Jun-26 09:33N 22°17' E 114°10'0 0.0
2015-Jun-26 07:33N 22°17' E 114°10'0 0.0
2015-Jun-26 05:33N 22°17' E 114°10'3 2.6
2015-Jun-26 04:33N 22°19' E 114°12'0 0.0
2015-Jun-26 03:33N 22°19' E 114°12'2 1.7
2015-Jun-26 02:33N 22°18' E 114°11'1 1.2
2015-Jun-26 01:33N 22°17' E 114°10'5 3.8
2015-Jun-26 00:18N 22°16' E 114°05'5 6.2
2015-Jun-25 23:34N 22°17' E 114°09'0 0.0
2015-Jun-25 16:33N 22°17' E 114°10'5 4.4
2015-Jun-25 15:20N 22°16' E 114°04'5 6.9
2015-Jun-25 14:33N 22°17' E 114°10'5 3.8
2015-Jun-25 13:18N 22°16' E 114°05'5 1.3
2015-Jun-25 09:33N 22°17' E 114°10'0 0.0
2015-Jun-25 07:33N 22°17' E 114°10'0 0.0
2015-Jun-25 05:33N 22°17' E 114°10'3 2.5
2015-Jun-25 04:33N 22°19' E 114°12'0 0.0
2015-Jun-25 03:33N 22°19' E 114°12'0 0.0
2015-Jun-25 02:34N 22°19' E 114°12'3 2.6
2015-Jun-25 01:33N 22°17' E 114°09'3 2.5
2015-Jun-25 00:16N 22°17' E 114°06'3 4.4
2015-Jun-24 23:33N 22°18' E 114°09'0 0.0
2015-Jun-24 16:34N 22°18' E 114°09'3 2.3
2015-Jun-24 15:14N 22°17' E 114°06'3 4.8
2015-Jun-24 14:33N 22°17' E 114°10'4 3.0
2015-Jun-24 13:16N 22°17' E 114°05'3 4.5
2015-Jun-24 12:34N 22°18' E 114°09'1 0.3
2015-Jun-24 09:33N 22°17' E 114°10'0 0.0
2015-Jun-24 07:33N 22°17' E 114°10'  
Track history (hours):
 
Tides and Currents Weather Stations Pressure Air Temp Water Temp Dewpoint Dewpoint Depression Visibility Wind Speed Wind Dir Waves Ship Positions

First Ferry Viii

Last reported at 2015-Jul-04 05:33 UTC. Time now 2015-Jul-04 07:04 UTC.
Position N 22°17' E 114°10'.

Length 36 m; draft 1.8 m.

Type: High speed craft. MMSI: 477995030.

Date/timePositionNaut miles runAvg speedWind from/ knotsBaromVisibWave heightAir tempDewpointWater temp
2015-Jul-04 05:33N 22°17' E 114°10'4 2.7
2015-Jul-04 04:06N 22°17' E 114°05'4 7.5
2015-Jul-04 03:34N 22°17' E 114°10'2 2.4
2015-Jul-04 02:34N 22°20' E 114°09'2 2.3
2015-Jul-04 01:33N 22°17' E 114°09'4 2.9
2015-Jul-04 00:16N 22°17' E 114°05'4 5.5
2015-Jul-03 23:34N 22°17' E 114°10'0 0.0
2015-Jul-03 16:34N 22°17' E 114°10'4 2.7
2015-Jul-03 15:14N 22°17' E 114°06'4 5.3
2015-Jul-03 14:34N 22°17' E 114°10'4 3.3
2015-Jul-03 13:18N 22°16' E 114°05'4 5.5
2015-Jul-03 12:33N 22°17' E 114°10'4 3.4
2015-Jul-03 11:17N 22°16' E 114°05'4 2.5
2015-Jul-03 09:33N 22°17' E 114°10'3 2.5
2015-Jul-03 08:32N 22°20' E 114°09'0 0.0
2015-Jul-03 07:22N 22°20' E 114°09'0 0.0
2015-Jul-03 06:33N 22°20' E 114°09'0 0.0
2015-Jul-03 05:32N 22°20' E 114°09'0 0.0
2015-Jul-03 04:33N 22°20' E 114°09'0 0.0
2015-Jul-03 03:33N 22°20' E 114°09'3 2.8
2015-Jul-03 02:33N 22°19' E 114°12'2 2.5
2015-Jul-03 01:33N 22°17' E 114°09'5 4.0
2015-Jul-03 00:19N 22°16' E 114°04'5 6.5
2015-Jul-02 23:33N 22°17' E 114°09'0 0.0
2015-Jul-02 16:33N 22°17' E 114°10'5 3.7
2015-Jul-02 15:19N 22°16' E 114°05'5 6.0
2015-Jul-02 14:33N 22°17' E 114°10'5 3.7
2015-Jul-02 13:18N 22°16' E 114°05'5 6.1
2015-Jul-02 12:33N 22°17' E 114°10'3 2.2
2015-Jul-02 11:11N 22°17' E 114°06'3 1.8
2015-Jul-02 09:32N 22°17' E 114°10'0 0.0
2015-Jul-02 07:33N 22°17' E 114°10'3 2.6
2015-Jul-02 06:33N 22°19' E 114°12'0 0.0
2015-Jul-02 05:33N 22°19' E 114°12'0 0.0
2015-Jul-02 04:33N 22°19' E 114°12'0 0.0
2015-Jul-02 03:33N 22°19' E 114°12'2 2.3
2015-Jul-02 02:33N 22°17' E 114°10'0 0.3
2015-Jul-02 01:33N 22°17' E 114°10'7 5.7
2015-Jul-02 00:24N 22°15' E 114°03'7 7.8
2015-Jul-01 23:33N 22°17' E 114°10'0 0.0
2015-Jul-01 16:33N 22°18' E 114°09'5 4.0
2015-Jul-01 15:21N 22°16' E 114°04'5 6.3
2015-Jul-01 14:33N 22°17' E 114°10'5 4.3
2015-Jul-01 13:20N 22°16' E 114°04'5 6.8
2015-Jul-01 12:33N 22°17' E 114°10'5 4.3
2015-Jul-01 11:20N 22°16' E 114°04'0 0.0
2015-Jul-01 06:24N 22°16' E 114°04'7 8.9
2015-Jul-01 05:34N 22°18' E 114°12'2 2.3
2015-Jul-01 04:33N 22°17' E 114°10'7 5.1
2015-Jul-01 03:16N 22°15' E 114°03'7 9.3
2015-Jul-01 02:34N 22°17' E 114°09'5 3.7
2015-Jul-01 01:17N 22°16' E 114°05'4 5.7
2015-Jul-01 00:33N 22°18' E 114°09'1 0.7
2015-Jun-30 23:33N 22°17' E 114°10'0 0.0
2015-Jun-30 16:34N 22°17' E 114°09'6 4.8
2015-Jun-30 15:23N 22°15' E 114°04'6 7.0
2015-Jun-30 14:33N 22°17' E 114°10'6 4.7
2015-Jun-30 13:21N 22°15' E 114°04'6 7.2
2015-Jun-30 12:33N 22°17' E 114°10'5 3.6
2015-Jun-30 11:19N 22°16' E 114°05'5 2.6
2015-Jun-30 09:33N 22°17' E 114°10'0 0.0
2015-Jun-30 07:31N 22°17' E 114°10'3 2.7
2015-Jun-30 06:34N 22°19' E 114°12'0 0.0
2015-Jun-30 05:34N 22°19' E 114°12'0 0.0
2015-Jun-30 04:33N 22°19' E 114°12'0 0.0
2015-Jun-30 03:34N 22°19' E 114°12'2 2.1
2015-Jun-30 02:34N 22°17' E 114°10'1 0.7
2015-Jun-30 01:34N 22°17' E 114°10'5 4.1
2015-Jun-30 00:20N 22°16' E 114°04'5 6.3
2015-Jun-29 23:34N 22°17' E 114°09'0 0.0
2015-Jun-29 16:33N 22°17' E 114°09'6 4.6
2015-Jun-29 15:21N 22°15' E 114°04'6 7.0
2015-Jun-29 14:33N 22°17' E 114°10'5 4.5
2015-Jun-29 13:22N 22°16' E 114°04'5 6.7
2015-Jun-29 12:33N 22°17' E 114°10'4 3.2
2015-Jun-29 11:17N 22°17' E 114°05'4 2.4
2015-Jun-29 09:33N 22°17' E 114°10'0 0.0
2015-Jun-29 07:30N 22°17' E 114°10'3 2.8
2015-Jun-29 06:33N 22°19' E 114°12'0 0.0
2015-Jun-29 05:33N 22°19' E 114°12'0 0.0
2015-Jun-29 04:33N 22°19' E 114°12'0 0.0
2015-Jun-29 03:33N 22°19' E 114°12'0 0.0
2015-Jun-29 02:33N 22°19' E 114°12'3 2.7
2015-Jun-29 01:34N 22°17' E 114°09'5 3.7
2015-Jun-29 00:18N 22°16' E 114°05'5 6.3
2015-Jun-28 23:34N 22°17' E 114°09'0 0.0
2015-Jun-28 16:34N 22°18' E 114°09'6 4.7
2015-Jun-28 15:22N 22°15' E 114°04'6 7.1
2015-Jun-28 14:33N 22°18' E 114°09'5 3.9
2015-Jun-28 13:19N 22°16' E 114°05'5 6.4
2015-Jun-28 12:34N 22°17' E 114°10'5 4.4
2015-Jun-28 11:22N 22°16' E 114°04'6 7.2
2015-Jun-28 10:33N 22°17' E 114°10'2 2.1
2015-Jun-28 09:33N 22°19' E 114°12'0 0.0
2015-Jun-28 08:33N 22°19' E 114°12'0 0.0
2015-Jun-28 07:33N 22°19' E 114°12'3 2.6
2015-Jun-28 06:33N 22°17' E 114°10'5 4.1
2015-Jun-28 05:16N 22°16' E 114°04'5 7.3
2015-Jun-28 04:34N 22°17' E 114°09'5 3.4
2015-Jun-28 03:12N 22°16' E 114°05'5 7.3
2015-Jun-28 02:33N 22°17' E 114°10'5 3.7
2015-Jun-28 01:18N 22°16' E 114°05'5 6.7
2015-Jun-28 00:33N 22°19' E 114°09'2 1.7
2015-Jun-27 23:33N 22°17' E 114°10'0 0.0
2015-Jun-27 16:34N 22°17' E 114°10'6 4.5
2015-Jun-27 15:15N 22°15' E 114°04'6 8.3
2015-Jun-27 14:33N 22°17' E 114°10'6 4.6
2015-Jun-27 13:21N 22°15' E 114°04'3 4.0
2015-Jun-27 12:33N 22°17' E 114°07'3 0.9
2015-Jun-27 09:33N 22°17' E 114°10'0 0.0
2015-Jun-27 07:33N 22°17' E 114°10'0 0.0
2015-Jun-27 05:34N 22°17' E 114°10'0 0.0
2015-Jun-27 03:33N 22°17' E 114°10'3 2.5
2015-Jun-27 02:33N 22°19' E 114°12'3 2.6
2015-Jun-27 01:34N 22°17' E 114°09'5 3.9
2015-Jun-27 00:19N 22°16' E 114°04'5 6.6
2015-Jun-26 23:34N 22°17' E 114°10'0 0.0
2015-Jun-26 16:33N 22°17' E 114°10'6 4.7
2015-Jun-26 15:21N 22°15' E 114°04'6 7.2
2015-Jun-26 14:33N 22°17' E 114°10'5 3.8
2015-Jun-26 13:19N 22°16' E 114°05'5 6.2
2015-Jun-26 12:33N 22°17' E 114°10'0 0.1
2015-Jun-26 10:30N 22°17' E 114°09'0 0.3
2015-Jun-26 09:33N 22°17' E 114°10'0 0.0
2015-Jun-26 07:33N 22°17' E 114°10'0 0.0
2015-Jun-26 05:33N 22°17' E 114°10'3 2.6
2015-Jun-26 04:33N 22°19' E 114°12'0 0.0
2015-Jun-26 03:33N 22°19' E 114°12'2 1.7
2015-Jun-26 02:33N 22°18' E 114°11'1 1.2
2015-Jun-26 01:33N 22°17' E 114°10'5 3.8
2015-Jun-26 00:18N 22°16' E 114°05'5 6.2
2015-Jun-25 23:34N 22°17' E 114°09'0 0.0
2015-Jun-25 16:33N 22°17' E 114°10'5 4.4
2015-Jun-25 15:20N 22°16' E 114°04'5 6.9
2015-Jun-25 14:33N 22°17' E 114°10'5 3.8
2015-Jun-25 13:18N 22°16' E 114°05'5 1.3
2015-Jun-25 09:33N 22°17' E 114°10'0 0.0
2015-Jun-25 07:33N 22°17' E 114°10'0 0.0
2015-Jun-25 05:33N 22°17' E 114°10'3 2.5
2015-Jun-25 04:33N 22°19' E 114°12'0 0.0
2015-Jun-25 03:33N 22°19' E 114°12'0 0.0
2015-Jun-25 02:34N 22°19' E 114°12'3 2.6
2015-Jun-25 01:33N 22°17' E 114°09'3 2.5
2015-Jun-25 00:16N 22°17' E 114°06'3 4.4
2015-Jun-24 23:33N 22°18' E 114°09'0 0.0
2015-Jun-24 16:34N 22°18' E 114°09'3 2.3
2015-Jun-24 15:14N 22°17' E 114°06'3 4.8
2015-Jun-24 14:33N 22°17' E 114°10'4 3.0
2015-Jun-24 13:16N 22°17' E 114°05'3 4.5
2015-Jun-24 12:34N 22°18' E 114°09'1 0.3
2015-Jun-24 09:33N 22°17' E 114°10'0 0.0
2015-Jun-24 07:33N 22°17' E 114°10'  

Dump ship's entire track history